sensor_id;sensor_type;location;lat;lon;timestamp;temperature;humidity
13211;DHT22;6670;51.53087800;7.23266500;2023-07-24T00:00:41;18.80;99.90
13211;DHT22;6670;51.53087800;7.23266500;2023-07-24T00:03:09;18.80;99.90
13211;DHT22;6670;51.53087800;7.23266500;2023-07-24T00:05:36;18.80;99.90
13211;DHT22;6670;51.53087800;7.23266500;2023-07-24T00:08:04;18.80;99.90
13211;DHT22;6670;51.53087800;7.23266500;2023-07-24T00:10:34;18.80;99.90
13211;DHT22;6670;51.53087800;7.23266500;2023-07-24T00:13:01;18.70;99.90
13211;DHT22;6670;51.53087800;7.23266500;2023-07-24T00:15:29;18.60;99.90
13211;DHT22;6670;51.53087800;7.23266500;2023-07-24T00:17:56;18.60;99.90
13211;DHT22;6670;51.53087800;7.23266500;2023-07-24T00:20:24;18.60;99.90
13211;DHT22;6670;51.53087800;7.23266500;2023-07-24T00:22:52;18.70;99.90
13211;DHT22;6670;51.53087800;7.23266500;2023-07-24T00:25:19;18.60;99.90
13211;DHT22;6670;51.53087800;7.23266500;2023-07-24T00:27:48;18.60;99.90
13211;DHT22;6670;51.53087800;7.23266500;2023-07-24T00:30:16;18.60;99.90
13211;DHT22;6670;51.53087800;7.23266500;2023-07-24T00:32:43;18.50;99.90
13211;DHT22;6670;51.53087800;7.23266500;2023-07-24T00:35:26;18.50;99.90
13211;DHT22;6670;51.53087800;7.23266500;2023-07-24T00:37:53;18.50;99.90
13211;DHT22;6670;51.53087800;7.23266500;2023-07-24T00:40:21;18.50;99.90
13211;DHT22;6670;51.53087800;7.23266500;2023-07-24T00:42:50;18.50;99.90
13211;DHT22;6670;51.53087800;7.23266500;2023-07-24T00:45:17;18.60;99.90
13211;DHT22;6670;51.53087800;7.23266500;2023-07-24T00:47:45;18.50;99.90
13211;DHT22;6670;51.53087800;7.23266500;2023-07-24T00:50:13;18.60;99.90
13211;DHT22;6670;51.53087800;7.23266500;2023-07-24T00:52:41;18.60;99.90
13211;DHT22;6670;51.53087800;7.23266500;2023-07-24T00:55:13;18.60;99.90
13211;DHT22;6670;51.53087800;7.23266500;2023-07-24T00:57:43;18.60;99.90
13211;DHT22;6670;51.53087800;7.23266500;2023-07-24T01:00:12;18.60;99.90
13211;DHT22;6670;51.53087800;7.23266500;2023-07-24T01:02:40;18.60;99.90
13211;DHT22;6670;51.53087800;7.23266500;2023-07-24T01:05:13;18.60;99.90
13211;DHT22;6670;51.53087800;7.23266500;2023-07-24T01:07:42;18.60;99.90
13211;DHT22;6670;51.53087800;7.23266500;2023-07-24T01:10:10;18.60;99.90
13211;DHT22;6670;51.53087800;7.23266500;2023-07-24T01:12:42;18.60;99.90
13211;DHT22;6670;51.53087800;7.23266500;2023-07-24T01:15:19;18.60;99.90
13211;DHT22;6670;51.53087800;7.23266500;2023-07-24T01:17:52;18.60;99.90
13211;DHT22;6670;51.53087800;7.23266500;2023-07-24T01:20:25;18.60;99.90
13211;DHT22;6670;51.53087800;7.23266500;2023-07-24T01:23:14;18.60;99.90
13211;DHT22;6670;51.53087800;7.23266500;2023-07-24T01:25:58;18.60;99.90
13211;DHT22;6670;51.53087800;7.23266500;2023-07-24T01:28:26;18.60;99.90
13211;DHT22;6670;51.53087800;7.23266500;2023-07-24T01:30:54;18.60;99.90
13211;DHT22;6670;51.53087800;7.23266500;2023-07-24T01:33:22;18.60;99.90
13211;DHT22;6670;51.53087800;7.23266500;2023-07-24T01:35:53;18.60;99.90
13211;DHT22;6670;51.53087800;7.23266500;2023-07-24T01:38:21;18.60;99.90
13211;DHT22;6670;51.53087800;7.23266500;2023-07-24T01:40:52;18.60;99.90
13211;DHT22;6670;51.53087800;7.23266500;2023-07-24T01:43:21;18.60;99.90
13211;DHT22;6670;51.53087800;7.23266500;2023-07-24T01:45:49;18.60;99.90
13211;DHT22;6670;51.53087800;7.23266500;2023-07-24T01:48:17;18.60;99.90
13211;DHT22;6670;51.53087800;7.23266500;2023-07-24T01:50:44;18.60;99.90
13211;DHT22;6670;51.53087800;7.23266500;2023-07-24T01:53:11;18.60;99.90
13211;DHT22;6670;51.53087800;7.23266500;2023-07-24T01:55:39;18.60;99.90
13211;DHT22;6670;51.53087800;7.23266500;2023-07-24T01:58:06;18.60;99.90
13211;DHT22;6670;51.53087800;7.23266500;2023-07-24T02:00:35;18.60;99.90
13211;DHT22;6670;51.53087800;7.23266500;2023-07-24T02:03:03;18.60;99.90
13211;DHT22;6670;51.53087800;7.23266500;2023-07-24T02:05:48;18.60;99.90
13211;DHT22;6670;51.53087800;7.23266500;2023-07-24T02:08:16;18.70;99.90
13211;DHT22;6670;51.53087800;7.23266500;2023-07-24T02:10:43;18.60;99.90
13211;DHT22;6670;51.53087800;7.23266500;2023-07-24T02:13:10;18.60;99.90
13211;DHT22;6670;51.53087800;7.23266500;2023-07-24T02:15:49;18.60;99.90
13211;DHT22;6670;51.53087800;7.23266500;2023-07-24T02:18:17;18.60;99.90
13211;DHT22;6670;51.53087800;7.23266500;2023-07-24T02:20:49;18.60;99.90
13211;DHT22;6670;51.53087800;7.23266500;2023-07-24T02:23:17;18.60;99.90
13211;DHT22;6670;51.53087800;7.23266500;2023-07-24T02:25:45;18.60;99.90
13211;DHT22;6670;51.53087800;7.23266500;2023-07-24T02:28:12;18.60;99.90
13211;DHT22;6670;51.53087800;7.23266500;2023-07-24T02:30:39;18.60;99.90
13211;DHT22;6670;51.53087800;7.23266500;2023-07-24T02:33:08;18.60;99.90
13211;DHT22;6670;51.53087800;7.23266500;2023-07-24T02:35:38;18.60;99.90
13211;DHT22;6670;51.53087800;7.23266500;2023-07-24T02:38:09;18.70;99.90
13211;DHT22;6670;51.53087800;7.23266500;2023-07-24T02:40:40;18.70;99.90
13211;DHT22;6670;51.53087800;7.23266500;2023-07-24T02:43:08;18.70;99.90
13211;DHT22;6670;51.53087800;7.23266500;2023-07-24T02:45:37;18.70;99.90
13211;DHT22;6670;51.53087800;7.23266500;2023-07-24T02:48:05;18.70;99.90
13211;DHT22;6670;51.53087800;7.23266500;2023-07-24T02:50:34;18.70;99.90
13211;DHT22;6670;51.53087800;7.23266500;2023-07-24T02:53:01;18.70;99.90
13211;DHT22;6670;51.53087800;7.23266500;2023-07-24T02:55:29;18.70;99.90
13211;DHT22;6670;51.53087800;7.23266500;2023-07-24T02:57:56;18.70;99.90
13211;DHT22;6670;51.53087800;7.23266500;2023-07-24T03:00:24;18.80;99.90
13211;DHT22;6670;51.53087800;7.23266500;2023-07-24T03:02:52;18.80;99.90
13211;DHT22;6670;51.53087800;7.23266500;2023-07-24T03:05:20;18.80;99.90
13211;DHT22;6670;51.53087800;7.23266500;2023-07-24T03:07:49;18.80;99.90
13211;DHT22;6670;51.53087800;7.23266500;2023-07-24T03:10:16;18.80;99.90
13211;DHT22;6670;51.53087800;7.23266500;2023-07-24T03:12:44;18.80;99.90
13211;DHT22;6670;51.53087800;7.23266500;2023-07-24T03:15:12;18.90;99.90
13211;DHT22;6670;51.53087800;7.23266500;2023-07-24T03:17:39;18.90;99.90
13211;DHT22;6670;51.53087800;7.23266500;2023-07-24T03:20:15;18.90;99.90
13211;DHT22;6670;51.53087800;7.23266500;2023-07-24T03:22:44;18.90;99.90
13211;DHT22;6670;51.53087800;7.23266500;2023-07-24T03:25:13;18.90;99.90
13211;DHT22;6670;51.53087800;7.23266500;2023-07-24T03:27:41;18.90;99.90
13211;DHT22;6670;51.53087800;7.23266500;2023-07-24T03:30:08;18.80;99.90
13211;DHT22;6670;51.53087800;7.23266500;2023-07-24T03:32:36;18.80;99.90
13211;DHT22;6670;51.53087800;7.23266500;2023-07-24T03:35:05;18.70;99.90
13211;DHT22;6670;51.53087800;7.23266500;2023-07-24T03:37:34;18.70;99.90
13211;DHT22;6670;51.53087800;7.23266500;2023-07-24T03:40:02;18.70;99.90
13211;DHT22;6670;51.53087800;7.23266500;2023-07-24T03:42:31;18.60;99.90
13211;DHT22;6670;51.53087800;7.23266500;2023-07-24T03:44:59;18.60;99.90
13211;DHT22;6670;51.53087800;7.23266500;2023-07-24T03:47:26;18.60;99.90
13211;DHT22;6670;51.53087800;7.23266500;2023-07-24T03:49:54;18.60;99.90
13211;DHT22;6670;51.53087800;7.23266500;2023-07-24T03:52:21;18.60;99.90
13211;DHT22;6670;51.53087800;7.23266500;2023-07-24T03:54:49;18.60;99.90
13211;DHT22;6670;51.53087800;7.23266500;2023-07-24T03:57:16;18.60;99.90
13211;DHT22;6670;51.53087800;7.23266500;2023-07-24T03:59:45;18.50;99.90
13211;DHT22;6670;51.53087800;7.23266500;2023-07-24T04:02:12;18.60;99.90
13211;DHT22;6670;51.53087800;7.23266500;2023-07-24T04:04:40;18.50;99.90
13211;DHT22;6670;51.53087800;7.23266500;2023-07-24T04:07:07;18.50;99.90
13211;DHT22;6670;51.53087800;7.23266500;2023-07-24T04:09:34;18.50;99.90
13211;DHT22;6670;51.53087800;7.23266500;2023-07-24T04:12:02;18.50;99.90
13211;DHT22;6670;51.53087800;7.23266500;2023-07-24T04:14:30;18.50;99.90
13211;DHT22;6670;51.53087800;7.23266500;2023-07-24T04:16:59;18.50;99.90
13211;DHT22;6670;51.53087800;7.23266500;2023-07-24T04:19:26;18.50;99.90
13211;DHT22;6670;51.53087800;7.23266500;2023-07-24T04:21:53;18.50;99.90
13211;DHT22;6670;51.53087800;7.23266500;2023-07-24T04:24:21;18.50;99.90
13211;DHT22;6670;51.53087800;7.23266500;2023-07-24T04:26:48;18.50;99.90
13211;DHT22;6670;51.53087800;7.23266500;2023-07-24T04:29:16;18.50;99.90
13211;DHT22;6670;51.53087800;7.23266500;2023-07-24T04:31:43;18.50;99.90
13211;DHT22;6670;51.53087800;7.23266500;2023-07-24T04:34:14;18.50;99.90
13211;DHT22;6670;51.53087800;7.23266500;2023-07-24T04:36:41;18.50;99.90
13211;DHT22;6670;51.53087800;7.23266500;2023-07-24T04:39:09;18.50;99.90
13211;DHT22;6670;51.53087800;7.23266500;2023-07-24T04:41:36;18.50;99.90
13211;DHT22;6670;51.53087800;7.23266500;2023-07-24T04:44:04;18.50;99.90
13211;DHT22;6670;51.53087800;7.23266500;2023-07-24T04:46:33;18.50;99.90
13211;DHT22;6670;51.53087800;7.23266500;2023-07-24T04:49:03;18.50;99.90
13211;DHT22;6670;51.53087800;7.23266500;2023-07-24T04:51:31;18.50;99.90
13211;DHT22;6670;51.53087800;7.23266500;2023-07-24T04:53:59;18.50;99.90
13211;DHT22;6670;51.53087800;7.23266500;2023-07-24T04:56:26;18.50;99.90
13211;DHT22;6670;51.53087800;7.23266500;2023-07-24T04:58:54;18.50;99.90
13211;DHT22;6670;51.53087800;7.23266500;2023-07-24T05:01:21;18.50;99.90
13211;DHT22;6670;51.53087800;7.23266500;2023-07-24T05:04:07;18.50;99.90
13211;DHT22;6670;51.53087800;7.23266500;2023-07-24T05:06:36;18.50;99.90
13211;DHT22;6670;51.53087800;7.23266500;2023-07-24T05:09:04;18.50;99.90
13211;DHT22;6670;51.53087800;7.23266500;2023-07-24T05:11:32;18.50;99.90
13211;DHT22;6670;51.53087800;7.23266500;2023-07-24T05:13:59;18.50;99.90
13211;DHT22;6670;51.53087800;7.23266500;2023-07-24T05:16:26;18.50;99.90
13211;DHT22;6670;51.53087800;7.23266500;2023-07-24T05:18:54;18.50;99.90
13211;DHT22;6670;51.53087800;7.23266500;2023-07-24T05:21:21;18.50;99.90
13211;DHT22;6670;51.53087800;7.23266500;2023-07-24T05:23:50;18.50;99.90
13211;DHT22;6670;51.53087800;7.23266500;2023-07-24T05:26:21;18.50;99.90
13211;DHT22;6670;51.53087800;7.23266500;2023-07-24T05:28:48;18.50;99.90
13211;DHT22;6670;51.53087800;7.23266500;2023-07-24T05:31:16;18.60;99.90
13211;DHT22;6670;51.53087800;7.23266500;2023-07-24T05:33:43;18.60;99.90
13211;DHT22;6670;51.53087800;7.23266500;2023-07-24T05:36:11;18.60;99.90
13211;DHT22;6670;51.53087800;7.23266500;2023-07-24T05:38:38;18.60;99.90
13211;DHT22;6670;51.53087800;7.23266500;2023-07-24T05:41:07;18.60;99.90
13211;DHT22;6670;51.53087800;7.23266500;2023-07-24T05:43:34;18.60;99.90
13211;DHT22;6670;51.53087800;7.23266500;2023-07-24T05:46:02;18.60;99.90
13211;DHT22;6670;51.53087800;7.23266500;2023-07-24T05:48:29;18.60;99.90
13211;DHT22;6670;51.53087800;7.23266500;2023-07-24T05:50:57;18.60;99.90
13211;DHT22;6670;51.53087800;7.23266500;2023-07-24T05:53:33;18.60;99.90
13211;DHT22;6670;51.53087800;7.23266500;2023-07-24T05:56:02;18.60;99.90
13211;DHT22;6670;51.53087800;7.23266500;2023-07-24T05:58:31;18.60;99.90
13211;DHT22;6670;51.53087800;7.23266500;2023-07-24T06:00:58;18.60;99.90
13211;DHT22;6670;51.53087800;7.23266500;2023-07-24T06:03:26;18.60;99.90
13211;DHT22;6670;51.53087800;7.23266500;2023-07-24T06:05:54;18.60;99.90
13211;DHT22;6670;51.53087800;7.23266500;2023-07-24T06:08:22;18.70;99.90
13211;DHT22;6670;51.53087800;7.23266500;2023-07-24T06:10:50;18.70;99.90
13211;DHT22;6670;51.53087800;7.23266500;2023-07-24T06:13:22;18.70;99.90
13211;DHT22;6670;51.53087800;7.23266500;2023-07-24T06:15:56;18.70;99.90
13211;DHT22;6670;51.53087800;7.23266500;2023-07-24T06:18:24;18.70;99.90
13211;DHT22;6670;51.53087800;7.23266500;2023-07-24T06:20:52;18.80;99.90
13211;DHT22;6670;51.53087800;7.23266500;2023-07-24T06:23:20;18.70;99.90
13211;DHT22;6670;51.53087800;7.23266500;2023-07-24T06:25:47;18.80;99.90
13211;DHT22;6670;51.53087800;7.23266500;2023-07-24T06:28:15;18.90;99.90
13211;DHT22;6670;51.53087800;7.23266500;2023-07-24T06:30:42;18.90;99.90
13211;DHT22;6670;51.53087800;7.23266500;2023-07-24T06:33:11;19.00;99.90
13211;DHT22;6670;51.53087800;7.23266500;2023-07-24T06:35:38;19.00;99.90
13211;DHT22;6670;51.53087800;7.23266500;2023-07-24T06:38:06;18.90;99.90
13211;DHT22;6670;51.53087800;7.23266500;2023-07-24T06:40:34;18.90;99.90
13211;DHT22;6670;51.53087800;7.23266500;2023-07-24T06:43:02;18.90;99.90
13211;DHT22;6670;51.53087800;7.23266500;2023-07-24T06:45:29;18.90;99.90
13211;DHT22;6670;51.53087800;7.23266500;2023-07-24T06:47:57;18.90;99.90
13211;DHT22;6670;51.53087800;7.23266500;2023-07-24T06:50:25;18.90;99.90
13211;DHT22;6670;51.53087800;7.23266500;2023-07-24T06:52:53;19.00;99.90
13211;DHT22;6670;51.53087800;7.23266500;2023-07-24T06:55:21;18.90;99.90
13211;DHT22;6670;51.53087800;7.23266500;2023-07-24T06:57:48;19.00;99.90
13211;DHT22;6670;51.53087800;7.23266500;2023-07-24T07:00:16;19.10;99.90
13211;DHT22;6670;51.53087800;7.23266500;2023-07-24T07:02:43;19.10;99.90
13211;DHT22;6670;51.53087800;7.23266500;2023-07-24T07:05:11;19.20;99.90
13211;DHT22;6670;51.53087800;7.23266500;2023-07-24T07:07:39;19.20;99.90
13211;DHT22;6670;51.53087800;7.23266500;2023-07-24T07:10:08;19.30;99.90
13211;DHT22;6670;51.53087800;7.23266500;2023-07-24T07:12:35;19.30;99.90
13211;DHT22;6670;51.53087800;7.23266500;2023-07-24T07:15:03;19.30;99.90
13211;DHT22;6670;51.53087800;7.23266500;2023-07-24T07:17:31;19.30;99.90
13211;DHT22;6670;51.53087800;7.23266500;2023-07-24T07:19:58;19.30;99.90
13211;DHT22;6670;51.53087800;7.23266500;2023-07-24T07:22:25;19.30;99.90
13211;DHT22;6670;51.53087800;7.23266500;2023-07-24T07:24:54;19.30;99.90
13211;DHT22;6670;51.53087800;7.23266500;2023-07-24T07:27:22;19.30;99.90
13211;DHT22;6670;51.53087800;7.23266500;2023-07-24T07:29:51;19.40;99.90
13211;DHT22;6670;51.53087800;7.23266500;2023-07-24T07:32:19;19.30;99.90
13211;DHT22;6670;51.53087800;7.23266500;2023-07-24T07:34:46;19.30;99.90
13211;DHT22;6670;51.53087800;7.23266500;2023-07-24T07:37:14;19.30;99.90
13211;DHT22;6670;51.53087800;7.23266500;2023-07-24T07:39:41;19.30;99.90
13211;DHT22;6670;51.53087800;7.23266500;2023-07-24T07:42:10;19.30;99.90
13211;DHT22;6670;51.53087800;7.23266500;2023-07-24T07:44:37;19.30;99.90
13211;DHT22;6670;51.53087800;7.23266500;2023-07-24T07:47:05;19.30;99.90
13211;DHT22;6670;51.53087800;7.23266500;2023-07-24T07:49:44;19.30;99.90
13211;DHT22;6670;51.53087800;7.23266500;2023-07-24T07:52:12;19.30;99.90
13211;DHT22;6670;51.53087800;7.23266500;2023-07-24T07:54:46;19.30;99.90
13211;DHT22;6670;51.53087800;7.23266500;2023-07-24T07:57:15;19.30;99.90
13211;DHT22;6670;51.53087800;7.23266500;2023-07-24T07:59:42;19.30;99.90
13211;DHT22;6670;51.53087800;7.23266500;2023-07-24T08:02:10;19.30;99.90
13211;DHT22;6670;51.53087800;7.23266500;2023-07-24T08:04:37;19.40;99.90
13211;DHT22;6670;51.53087800;7.23266500;2023-07-24T08:07:05;19.50;99.90
13211;DHT22;6670;51.53087800;7.23266500;2023-07-24T08:09:32;19.50;99.90
13211;DHT22;6670;51.53087800;7.23266500;2023-07-24T08:11:59;19.50;99.90
13211;DHT22;6670;51.53087800;7.23266500;2023-07-24T08:14:28;19.50;99.90
13211;DHT22;6670;51.53087800;7.23266500;2023-07-24T08:16:56;19.60;99.90
13211;DHT22;6670;51.53087800;7.23266500;2023-07-24T08:19:23;19.60;99.90
13211;DHT22;6670;51.53087800;7.23266500;2023-07-24T08:21:51;19.60;99.90
13211;DHT22;6670;51.53087800;7.23266500;2023-07-24T08:24:18;19.50;99.90
13211;DHT22;6670;51.53087800;7.23266500;2023-07-24T08:26:45;19.50;99.90
13211;DHT22;6670;51.53087800;7.23266500;2023-07-24T08:29:13;19.40;99.90
13211;DHT22;6670;51.53087800;7.23266500;2023-07-24T08:31:44;19.30;99.90
13211;DHT22;6670;51.53087800;7.23266500;2023-07-24T08:34:11;19.20;99.90
13211;DHT22;6670;51.53087800;7.23266500;2023-07-24T08:36:39;19.30;99.90
13211;DHT22;6670;51.53087800;7.23266500;2023-07-24T08:39:23;19.20;99.90
13211;DHT22;6670;51.53087800;7.23266500;2023-07-24T08:41:51;19.10;99.90
13211;DHT22;6670;51.53087800;7.23266500;2023-07-24T08:44:18;19.00;99.90
13211;DHT22;6670;51.53087800;7.23266500;2023-07-24T08:46:52;18.90;99.90
13211;DHT22;6670;51.53087800;7.23266500;2023-07-24T08:49:19;18.90;99.90
13211;DHT22;6670;51.53087800;7.23266500;2023-07-24T08:51:47;18.80;99.90
13211;DHT22;6670;51.53087800;7.23266500;2023-07-24T08:54:15;18.90;99.90
13211;DHT22;6670;51.53087800;7.23266500;2023-07-24T08:56:43;18.80;99.90
13211;DHT22;6670;51.53087800;7.23266500;2023-07-24T08:59:15;18.70;99.90
13211;DHT22;6670;51.53087800;7.23266500;2023-07-24T09:01:43;18.80;99.90
13211;DHT22;6670;51.53087800;7.23266500;2023-07-24T09:04:12;18.90;99.90
13211;DHT22;6670;51.53087800;7.23266500;2023-07-24T09:06:40;19.00;99.90
13211;DHT22;6670;51.53087800;7.23266500;2023-07-24T09:09:13;19.10;99.90
13211;DHT22;6670;51.53087800;7.23266500;2023-07-24T09:11:47;19.20;99.90
13211;DHT22;6670;51.53087800;7.23266500;2023-07-24T09:14:23;19.20;99.90
13211;DHT22;6670;51.53087800;7.23266500;2023-07-24T09:17:02;19.50;99.90
13211;DHT22;6670;51.53087800;7.23266500;2023-07-24T09:19:33;19.50;99.90
13211;DHT22;6670;51.53087800;7.23266500;2023-07-24T09:22:14;19.60;99.90
13211;DHT22;6670;51.53087800;7.23266500;2023-07-24T09:24:51;19.60;99.90
13211;DHT22;6670;51.53087800;7.23266500;2023-07-24T09:27:19;19.70;99.90
13211;DHT22;6670;51.53087800;7.23266500;2023-07-24T09:29:47;19.80;99.90
13211;DHT22;6670;51.53087800;7.23266500;2023-07-24T09:32:21;19.90;99.90
13211;DHT22;6670;51.53087800;7.23266500;2023-07-24T09:35:16;19.80;99.90
13211;DHT22;6670;51.53087800;7.23266500;2023-07-24T09:37:44;20.00;99.90
13211;DHT22;6670;51.53087800;7.23266500;2023-07-24T09:40:14;20.10;99.90
13211;DHT22;6670;51.53087800;7.23266500;2023-07-24T09:42:42;20.20;99.90
13211;DHT22;6670;51.53087800;7.23266500;2023-07-24T09:45:10;20.10;99.90
13211;DHT22;6670;51.53087800;7.23266500;2023-07-24T09:47:39;20.10;99.90
13211;DHT22;6670;51.53087800;7.23266500;2023-07-24T09:50:09;20.00;99.90
13211;DHT22;6670;51.53087800;7.23266500;2023-07-24T09:52:37;20.00;99.90
13211;DHT22;6670;51.53087800;7.23266500;2023-07-24T09:55:11;20.10;99.90
13211;DHT22;6670;51.53087800;7.23266500;2023-07-24T09:57:39;20.00;99.90
13211;DHT22;6670;51.53087800;7.23266500;2023-07-24T10:00:08;20.00;99.90
13211;DHT22;6670;51.53087800;7.23266500;2023-07-24T10:02:36;20.00;99.90
13211;DHT22;6670;51.53087800;7.23266500;2023-07-24T10:05:04;19.90;99.90
13211;DHT22;6670;51.53087800;7.23266500;2023-07-24T10:07:52;20.00;99.90
13211;DHT22;6670;51.53087800;7.23266500;2023-07-24T10:10:23;19.90;99.90
13211;DHT22;6670;51.53087800;7.23266500;2023-07-24T10:12:51;19.90;99.90
13211;DHT22;6670;51.53087800;7.23266500;2023-07-24T10:15:19;19.70;99.90
13211;DHT22;6670;51.53087800;7.23266500;2023-07-24T10:17:46;19.50;99.90
13211;DHT22;6670;51.53087800;7.23266500;2023-07-24T10:20:16;19.50;99.90
13211;DHT22;6670;51.53087800;7.23266500;2023-07-24T10:22:49;19.50;99.90
13211;DHT22;6670;51.53087800;7.23266500;2023-07-24T10:25:18;19.60;99.90
13211;DHT22;6670;51.53087800;7.23266500;2023-07-24T10:28:01;19.80;99.90
13211;DHT22;6670;51.53087800;7.23266500;2023-07-24T10:30:32;19.80;99.90
13211;DHT22;6670;51.53087800;7.23266500;2023-07-24T10:33:07;19.70;99.90
13211;DHT22;6670;51.53087800;7.23266500;2023-07-24T10:35:42;19.90;99.90
13211;DHT22;6670;51.53087800;7.23266500;2023-07-24T10:38:09;19.80;99.90
13211;DHT22;6670;51.53087800;7.23266500;2023-07-24T10:40:39;19.80;99.90
13211;DHT22;6670;51.53087800;7.23266500;2023-07-24T10:43:08;19.80;99.90
13211;DHT22;6670;51.53087800;7.23266500;2023-07-24T10:45:40;19.70;99.90
13211;DHT22;6670;51.53087800;7.23266500;2023-07-24T10:48:08;19.90;99.90
13211;DHT22;6670;51.53087800;7.23266500;2023-07-24T10:50:39;20.10;99.90
13211;DHT22;6670;51.53087800;7.23266500;2023-07-24T10:53:08;20.10;99.90
13211;DHT22;6670;51.53087800;7.23266500;2023-07-24T10:55:36;20.10;99.90
13211;DHT22;6670;51.53087800;7.23266500;2023-07-24T10:58:05;20.30;99.90
13211;DHT22;6670;51.53087800;7.23266500;2023-07-24T11:00:33;20.50;99.90
13211;DHT22;6670;51.53087800;7.23266500;2023-07-24T11:03:01;20.30;99.90
13211;DHT22;6670;51.53087800;7.23266500;2023-07-24T11:05:29;20.10;99.90
13211;DHT22;6670;51.53087800;7.23266500;2023-07-24T11:07:56;20.10;99.90
13211;DHT22;6670;51.53087800;7.23266500;2023-07-24T11:10:24;20.10;99.90
13211;DHT22;6670;51.53087800;7.23266500;2023-07-24T11:12:56;20.00;99.90
13211;DHT22;6670;51.53087800;7.23266500;2023-07-24T11:15:25;20.10;99.90
13211;DHT22;6670;51.53087800;7.23266500;2023-07-24T11:17:54;20.00;99.90
13211;DHT22;6670;51.53087800;7.23266500;2023-07-24T11:20:21;19.90;99.90
13211;DHT22;6670;51.53087800;7.23266500;2023-07-24T11:22:49;19.90;99.90
13211;DHT22;6670;51.53087800;7.23266500;2023-07-24T11:25:16;19.90;99.90
13211;DHT22;6670;51.53087800;7.23266500;2023-07-24T11:27:44;20.00;99.90
13211;DHT22;6670;51.53087800;7.23266500;2023-07-24T11:30:19;20.00;99.90
13211;DHT22;6670;51.53087800;7.23266500;2023-07-24T11:32:49;19.80;99.90
13211;DHT22;6670;51.53087800;7.23266500;2023-07-24T11:35:17;19.90;99.90
13211;DHT22;6670;51.53087800;7.23266500;2023-07-24T11:37:47;19.80;99.90
13211;DHT22;6670;51.53087800;7.23266500;2023-07-24T11:40:31;19.70;99.90
13211;DHT22;6670;51.53087800;7.23266500;2023-07-24T11:42:58;19.60;99.90
13211;DHT22;6670;51.53087800;7.23266500;2023-07-24T11:45:26;19.40;99.90
13211;DHT22;6670;51.53087800;7.23266500;2023-07-24T11:47:56;19.30;99.90
13211;DHT22;6670;51.53087800;7.23266500;2023-07-24T11:50:23;19.40;99.90
13211;DHT22;6670;51.53087800;7.23266500;2023-07-24T11:52:52;19.40;99.90
13211;DHT22;6670;51.53087800;7.23266500;2023-07-24T11:55:30;19.40;99.90
13211;DHT22;6670;51.53087800;7.23266500;2023-07-24T11:58:00;19.40;99.90
13211;DHT22;6670;51.53087800;7.23266500;2023-07-24T12:00:32;19.10;99.90
13211;DHT22;6670;51.53087800;7.23266500;2023-07-24T12:03:02;19.00;99.90
13211;DHT22;6670;51.53087800;7.23266500;2023-07-24T12:05:38;18.70;99.90
13211;DHT22;6670;51.53087800;7.23266500;2023-07-24T12:08:05;18.40;99.90
13211;DHT22;6670;51.53087800;7.23266500;2023-07-24T12:10:36;18.30;99.90
13211;DHT22;6670;51.53087800;7.23266500;2023-07-24T12:13:04;18.10;99.90
13211;DHT22;6670;51.53087800;7.23266500;2023-07-24T12:15:32;18.10;99.90
13211;DHT22;6670;51.53087800;7.23266500;2023-07-24T12:18:02;17.90;99.90
13211;DHT22;6670;51.53087800;7.23266500;2023-07-24T12:20:33;17.80;99.90
13211;DHT22;6670;51.53087800;7.23266500;2023-07-24T12:23:03;17.70;99.90
13211;DHT22;6670;51.53087800;7.23266500;2023-07-24T12:25:31;17.80;99.90
13211;DHT22;6670;51.53087800;7.23266500;2023-07-24T12:27:58;17.80;99.90
13211;DHT22;6670;51.53087800;7.23266500;2023-07-24T12:30:26;17.90;99.90
13211;DHT22;6670;51.53087800;7.23266500;2023-07-24T12:32:53;17.90;99.90
13211;DHT22;6670;51.53087800;7.23266500;2023-07-24T12:35:25;17.70;99.90
13211;DHT22;6670;51.53087800;7.23266500;2023-07-24T12:37:53;17.60;99.90
13211;DHT22;6670;51.53087800;7.23266500;2023-07-24T12:40:20;17.50;99.90
13211;DHT22;6670;51.53087800;7.23266500;2023-07-24T12:42:48;17.40;99.90
13211;DHT22;6670;51.53087800;7.23266500;2023-07-24T12:45:17;17.40;99.90
13211;DHT22;6670;51.53087800;7.23266500;2023-07-24T12:47:44;17.40;99.90
13211;DHT22;6670;51.53087800;7.23266500;2023-07-24T12:50:12;17.50;99.90
13211;DHT22;6670;51.53087800;7.23266500;2023-07-24T12:52:41;17.50;99.90
13211;DHT22;6670;51.53087800;7.23266500;2023-07-24T12:55:08;17.60;99.90
13211;DHT22;6670;51.53087800;7.23266500;2023-07-24T12:57:36;17.80;99.90
13211;DHT22;6670;51.53087800;7.23266500;2023-07-24T13:00:05;17.60;99.90
13211;DHT22;6670;51.53087800;7.23266500;2023-07-24T13:02:32;17.60;99.90
13211;DHT22;6670;51.53087800;7.23266500;2023-07-24T13:05:00;17.80;99.90
13211;DHT22;6670;51.53087800;7.23266500;2023-07-24T13:07:27;18.10;99.90
13211;DHT22;6670;51.53087800;7.23266500;2023-07-24T13:10:01;18.10;99.90
13211;DHT22;6670;51.53087800;7.23266500;2023-07-24T13:12:28;18.10;99.90
13211;DHT22;6670;51.53087800;7.23266500;2023-07-24T13:14:59;18.20;99.90
13211;DHT22;6670;51.53087800;7.23266500;2023-07-24T13:17:30;18.60;99.90
13211;DHT22;6670;51.53087800;7.23266500;2023-07-24T13:19:57;19.00;99.90
13211;DHT22;6670;51.53087800;7.23266500;2023-07-24T13:22:27;19.50;99.90
13211;DHT22;6670;51.53087800;7.23266500;2023-07-24T13:25:13;19.60;99.90
13211;DHT22;6670;51.53087800;7.23266500;2023-07-24T13:27:41;19.90;99.90
13211;DHT22;6670;51.53087800;7.23266500;2023-07-24T13:30:12;20.00;99.90
13211;DHT22;6670;51.53087800;7.23266500;2023-07-24T13:32:40;20.20;99.90
13211;DHT22;6670;51.53087800;7.23266500;2023-07-24T13:35:19;20.30;99.90
13211;DHT22;6670;51.53087800;7.23266500;2023-07-24T13:37:46;20.50;99.90
13211;DHT22;6670;51.53087800;7.23266500;2023-07-24T13:40:15;20.10;99.90
13211;DHT22;6670;51.53087800;7.23266500;2023-07-24T13:42:43;20.30;99.90
13211;DHT22;6670;51.53087800;7.23266500;2023-07-24T13:45:13;20.30;99.90